Time;durP1;ratioP1;P1;durP2;ratioP2;P2;SDS_P1;SDS_P2;PMS_P1;PMS_P2;Temp;Humidity;BMP_temperature;BMP_pressure;BME280_temperature;BME280_humidity;BME280_pressure;Samples;Min_cycle;Max_cycle;Signal;HPM_P1;HPM_P2
2021/11/15 11:42:06;;;;;;;47.08;22.58;;;;;;;5.14;76.68;101404.13;4987280;28;105800;-61
2021/11/15 11:44:32;;;;;;;51.90;22.30;;;;;;;5.18;76.71;101400.34;4985828;28;106423;-65
2021/11/15 11:47:04;;;;;;;53.45;24.17;;;;;;;5.25;77.10;101406.03;4985172;28;105962;-66
2021/11/15 11:49:31;;;;;;;55.60;26.63;;;;;;;5.31;77.32;101405.59;4984418;28;106062;-66
2021/11/15 11:52:00;;;;;;;60.22;26.58;;;;;;;5.37;77.54;101402.56;4984760;28;106391;-67
2021/11/15 11:54:35;;;;;;;52.03;24.20;;;;;;;5.46;77.50;101405.50;4985357;28;106272;-68
2021/11/15 11:57:09;;;;;;;65.38;24.98;;;;;;;5.57;77.58;101402.94;4984929;28;105855;-68
2021/11/15 11:59:56;;;;;;;57.92;25.08;;;;;;;5.66;77.69;101404.09;4984174;28;106066;-65
2021/11/15 12:02:25;;;;;;;58.22;25.25;;;;;;;5.70;77.27;101397.63;4983287;28;106028;-66
2021/11/15 12:05:04;;;;;;;55.97;26.08;;;;;;;5.74;77.31;101396.44;4984948;28;106051;-62
2021/11/15 12:07:36;;;;;;;56.08;25.27;;;;;;;5.80;77.38;101381.97;4984876;28;106296;-63
2021/11/15 12:10:08;;;;;;;52.70;24.02;;;;;;;5.88;77.37;101382.28;4983638;28;106272;-66
2021/11/15 12:12:51;;;;;;;61.55;25.40;;;;;;;5.92;76.79;101386.38;4984371;28;106263;-64
2021/11/15 12:15:38;;;;;;;63.67;26.90;;;;;;;5.96;77.03;101387.00;4985083;28;106081;-65
2021/11/15 12:18:22;;;;;;;64.45;27.73;;;;;;;6.01;77.36;101384.91;4984426;28;106258;-68
2021/11/15 12:21:05;;;;;;;63.45;27.08;;;;;;;6.01;77.19;101396.31;4983875;28;106624;-65
2021/11/15 12:24:05;;;;;;;60.70;26.17;;;;;;;6.04;76.97;101384.66;4983770;28;105978;-63
2021/11/15 12:26:41;;;;;;;49.23;23.77;;;;;;;6.06;77.09;101386.25;4984405;28;106155;-63
2021/11/15 12:29:27;;;;;;;56.47;25.50;;;;;;;6.06;76.82;101388.06;4984052;28;106174;-65
2021/11/15 12:32:00;;;;;;;51.03;24.55;;;;;;;6.07;76.83;101389.75;4983709;28;105924;-66
2021/11/15 12:34:28;;;;;;;63.63;27.25;;;;;;;6.07;76.82;101392.41;4983811;28;106057;-66
2021/11/15 12:36:56;;;;;;;52.35;26.08;;;;;;;6.09;76.87;101390.47;4984349;28;106036;-64
2021/11/15 12:39:25;;;;;;;54.67;24.75;;;;;;;6.12;76.93;101389.41;4983980;28;106668;-63
2021/11/15 12:41:53;;;;;;;48.40;23.63;;;;;;;6.12;76.54;101381.47;4982765;28;106896;-65
2021/11/15 12:44:35;;;;;;;50.13;23.98;;;;;;;6.12;76.89;101381.47;4981884;28;106055;-63
2021/11/15 12:47:01;;;;;;;53.92;24.38;;;;;;;6.13;76.76;101383.16;4984622;28;106345;-65
2021/11/15 12:49:37;;;;;;;60.33;26.20;;;;;;;6.14;76.50;101379.53;4984290;28;106174;-62
2021/11/15 12:52:03;;;;;;;49.13;23.40;;;;;;;6.16;76.98;101380.28;4978315;28;106444;-65
2021/11/15 12:54:32;;;;;;;47.70;23.58;;;;;;;6.15;76.63;101375.94;4970170;28;106496;-64
2021/11/15 12:57:16;;;;;;;46.57;23.87;;;;;;;6.15;76.35;101379.47;4971271;28;106318;-65
2021/11/15 12:59:43;;;;;;;56.63;26.88;;;;;;;6.17;76.47;101374.88;4970804;28;106238;-64
2021/11/15 13:02:09;;;;;;;59.60;25.23;;;;;;;6.18;76.42;101375.72;4970142;28;106751;-66
2021/11/15 13:04:38;;;;;;;55.67;25.00;;;;;;;6.17;76.32;101374.06;4970160;28;105852;-65
2021/11/15 13:07:05;;;;;;;47.67;23.67;;;;;;;6.17;76.56;101374.06;4970582;28;106037;-67
2021/11/15 13:09:30;;;;;;;51.53;24.48;;;;;;;6.17;76.72;101377.53;4970673;28;105909;-63
2021/11/15 13:11:57;;;;;;;53.65;24.52;;;;;;;6.16;76.42;101382.94;4969806;28;107174;-63
2021/11/15 13:14:22;;;;;;;48.00;25.02;;;;;;;6.18;76.72;101381.00;4969320;28;106072;-63
2021/11/15 13:16:48;;;;;;;46.55;24.55;;;;;;;6.18;76.44;101373.06;4970362;28;105843;-68
2021/11/15 13:19:14;;;;;;;49.88;22.70;;;;;;;6.20;76.13;101379.09;4976397;28;106043;-66
2021/11/15 13:21:42;;;;;;;55.03;24.73;;;;;;;6.17;76.28;101384.63;4983412;28;105930;-65
2021/11/15 13:24:09;;;;;;;53.65;24.90;;;;;;;6.16;76.52;101369.72;4972247;28;106537;-63
2021/11/15 13:26:36;;;;;;;50.70;24.88;;;;;;;6.17;76.62;101374.88;4972332;28;105871;-68
2021/11/15 13:29:03;;;;;;;53.20;23.10;;;;;;;6.20;76.11;101373.81;4989401;28;106199;-65
2021/11/15 13:31:29;;;;;;;48.60;23.02;;;;;;;6.19;76.53;101367.69;4989451;28;105783;-66
2021/11/15 13:33:54;;;;;;;51.20;24.50;;;;;;;6.19;76.30;101372.97;4983961;28;105840;-66
2021/11/15 13:36:20;;;;;;;51.78;25.23;;;;;;;6.21;76.41;101380.81;4969874;28;105842;-71
2021/11/15 13:38:45;;;;;;;56.00;24.58;;;;;;;6.18;75.78;101375.72;4969733;28;105773;-66
2021/11/15 13:41:10;;;;;;;50.15;25.27;;;;;;;6.16;76.33;101373.19;4967796;28;106112;-67
2021/11/15 13:43:36;;;;;;;50.10;23.77;;;;;;;6.17;76.44;101374.06;4969279;28;105901;-68
2021/11/15 13:46:07;;;;;;;51.53;24.50;;;;;;;6.16;76.02;101369.72;4969537;28;105893;-66
2021/11/15 13:48:32;;;;;;;49.60;24.65;;;;;;;6.15;76.01;101366.22;4968939;28;106641;-66
2021/11/15 13:50:58;;;;;;;51.97;23.52;;;;;;;6.15;76.13;101371.53;4968862;28;107110;-66
2021/11/15 13:53:23;;;;;;;55.25;26.80;;;;;;;6.16;76.04;101372.34;4968770;28;105976;-72
2021/11/15 13:55:50;;;;;;;53.70;27.20;;;;;;;6.15;75.88;101375.94;4969825;28;105833;-67
2021/11/15 13:58:15;;;;;;;49.35;22.42;;;;;;;6.16;76.03;101377.66;4967867;28;106167;-67
2021/11/15 14:00:41;;;;;;;51.58;22.35;;;;;;;6.19;76.33;101382.69;4966620;28;106088;-67
2021/11/15 14:03:06;;;;;;;40.63;20.48;;;;;;;6.20;75.88;101385.22;4966097;28;106366;-66
2021/11/15 14:05:33;;;;;;;51.33;24.83;;;;;;;6.17;75.80;101374.06;4967050;28;106400;-66
2021/11/15 14:07:59;;;;;;;49.08;23.00;;;;;;;6.18;76.14;101381.00;4966852;28;106020;-67
2021/11/15 14:10:25;;;;;;;43.45;21.30;;;;;;;6.20;75.83;101381.75;4966959;28;106691;-66
2021/11/15 14:12:50;;;;;;;43.88;21.17;;;;;;;6.18;76.11;101386.28;4966723;28;106034;-67
2021/11/15 14:15:16;;;;;;;46.20;22.60;;;;;;;6.15;75.88;101387.41;4967304;28;106404;-65
2021/11/15 14:17:43;;;;;;;45.22;23.95;;;;;;;6.13;75.72;101391.94;4966379;28;106709;-66
2021/11/15 14:20:10;;;;;;;43.42;21.98;;;;;;;6.12;76.05;101394.69;4967905;28;105973;-66
2021/11/15 14:22:36;;;;;;;33.05;17.88;;;;;;;6.10;75.71;101395.66;4968044;28;106951;-67
2021/11/15 14:25:02;;;;;;;37.63;20.27;;;;;;;6.08;75.73;101394.94;4968228;28;105943;-63
2021/11/15 14:27:28;;;;;;;33.88;18.75;;;;;;;6.08;76.10;101391.41;4969435;28;106415;-66
2021/11/15 14:29:53;;;;;;;37.53;19.30;;;;;;;6.08;76.02;101386.13;4968232;28;106467;-66
2021/11/15 14:32:19;;;;;;;33.00;17.13;;;;;;;6.09;75.95;101395.75;4968511;28;106152;-67
2021/11/15 14:34:47;;;;;;;36.15;18.67;;;;;;;6.08;75.44;101396.72;4969749;28;106017;-67
2021/11/15 14:37:17;;;;;;;33.35;17.92;;;;;;;6.08;75.44;101391.41;4969142;28;106165;-67
2021/11/15 14:39:42;;;;;;;41.60;18.47;;;;;;;6.06;75.50;101393.34;4968465;28;106767;-66
2021/11/15 14:42:08;;;;;;;30.25;16.25;;;;;;;6.07;75.88;101395.88;4968490;28;106531;-67
2021/11/15 14:44:34;;;;;;;28.30;16.65;;;;;;;6.07;75.63;101395.88;4968997;28;106283;-67
2021/11/15 14:46:59;;;;;;;34.65;17.33;;;;;;;6.08;75.77;101392.28;4968731;28;106194;-67
2021/11/15 14:49:25;;;;;;;34.92;16.60;;;;;;;6.06;75.65;101386.25;4967707;28;106255;-68
2021/11/15 14:51:52;;;;;;;28.95;15.63;;;;;;;6.05;75.24;101384.53;4968618;28;105827;-66
2021/11/15 14:54:18;;;;;;;30.35;16.10;;;;;;;6.05;75.82;101392.47;4968508;28;105731;-68
2021/11/15 14:56:43;;;;;;;28.10;15.27;;;;;;;6.04;75.38;101379.38;4968583;28;106215;-65
2021/11/15 14:59:09;;;;;;;27.17;15.40;;;;;;;6.03;75.61;101383.84;4968533;28;105809;-67
2021/11/15 15:01:52;;;;;;;33.65;16.77;;;;;;;6.03;75.53;101388.28;4967868;28;105927;-68
2021/11/15 15:04:19;;;;;;;29.85;16.00;;;;;;;6.01;75.43;101385.72;4968888;28;106008;-66
2021/11/15 15:06:47;;;;;;;30.73;17.17;;;;;;;6.02;75.29;101387.41;4965710;28;106168;-67
2021/11/15 15:09:14;;;;;;;31.10;16.70;;;;;;;6.01;75.23;101385.72;4961414;28;105978;-67
2021/11/15 15:11:40;;;;;;;29.48;17.23;;;;;;;6.00;75.38;101383.19;4962975;28;106435;-67
2021/11/15 15:14:08;;;;;;;36.13;17.33;;;;;;;6.01;75.30;101379.59;4965594;28;106072;-67
2021/11/15 15:16:33;;;;;;;40.47;19.95;;;;;;;6.01;75.10;101391.03;4964769;28;106536;-66
2021/11/15 15:18:59;;;;;;;40.33;19.77;;;;;;;6.00;75.29;101388.50;4966216;28;106106;-66
2021/11/15 15:21:24;;;;;;;31.67;17.48;;;;;;;6.01;75.43;101384.91;4966078;28;106330;-68
2021/11/15 15:23:50;;;;;;;47.85;18.65;;;;;;;5.99;75.14;101385.00;4967559;28;106032;-67
2021/11/15 15:26:15;;;;;;;32.55;18.70;;;;;;;5.98;75.43;101385.97;4966830;28;106215;-68
2021/11/15 15:28:42;;;;;;;35.00;19.15;;;;;;;5.98;75.50;101391.25;4966991;28;106694;-63
2021/11/15 15:31:08;;;;;;;33.88;17.73;;;;;;;5.98;75.04;101388.59;4966807;28;106593;-65
2021/11/15 15:33:33;;;;;;;33.90;17.55;;;;;;;5.98;75.61;101393.91;4967323;28;106081;-66
2021/11/15 15:35:59;;;;;;;32.88;18.10;;;;;;;5.97;75.26;101391.31;4966766;28;105955;-64
2021/11/15 15:38:25;;;;;;;32.00;17.88;;;;;;;5.95;75.10;101390.63;4965858;28;106084;-63
2021/11/15 15:40:51;;;;;;;33.45;17.88;;;;;;;5.91;75.15;101392.63;4965396;28;106389;-67
2021/11/15 15:43:19;;;;;;;34.42;18.35;;;;;;;5.88;75.28;101395.50;4966138;28;106267;-63
2021/11/15 15:45:50;;;;;;;37.15;18.35;;;;;;;5.86;75.37;101400.03;4965756;28;106297;-65
2021/11/15 15:48:20;;;;;;;35.53;17.73;;;;;;;5.83;75.44;101403.75;4965219;28;106253;-64
2021/11/15 15:50:49;;;;;;;38.40;20.73;;;;;;;5.81;75.53;101394.22;4965760;28;106032;-67
2021/11/15 15:53:15;;;;;;;33.45;18.80;;;;;;;5.78;75.62;101397.94;4966719;28;106065;-67
2021/11/15 15:55:41;;;;;;;34.95;19.77;;;;;;;5.78;75.64;101394.44;4966543;28;106484;-67
2021/11/15 15:58:07;;;;;;;33.53;19.00;;;;;;;5.77;75.78;101404.19;4965715;28;106022;-65
2021/11/15 16:00:32;;;;;;;38.40;19.92;;;;;;;5.78;75.55;101410.31;4965935;28;106152;-66
2021/11/15 16:02:58;;;;;;;31.75;19.00;;;;;;;5.77;75.80;101409.47;4966830;28;106516;-67
2021/11/15 16:11:14;;;;;;;31.83;18.40;;;;;;;5.74;75.84;101405.25;4963163;28;106084;-63
2021/11/15 16:18:40;;;;;;;39.40;20.73;;;;;;;5.75;75.98;101396.38;4949884;28;106528;-67
2021/11/15 16:21:06;;;;;;;37.53;21.20;;;;;;;5.76;76.13;101397.22;4945622;28;106326;-69
2021/11/15 16:23:33;;;;;;;40.05;21.65;;;;;;;5.75;76.04;101385.78;4945941;28;106163;-66
2021/11/15 16:25:58;;;;;;;42.97;21.00;;;;;;;5.77;75.95;101383.03;4946513;28;106516;-67
2021/11/15 16:28:24;;;;;;;40.05;21.42;;;;;;;5.77;76.11;101383.03;4949199;28;106061;-66
2021/11/15 16:30:52;;;;;;;39.83;20.88;;;;;;;5.74;76.06;101386.75;4949809;28;106560;-64
2021/11/15 16:33:20;;;;;;;39.53;21.42;;;;;;;5.70;76.08;101369.41;4950192;28;106340;-67
2021/11/15 16:35:46;;;;;;;39.85;20.00;;;;;;;5.69;76.17;101386.22;4949905;28;106174;-66
2021/11/15 16:38:12;;;;;;;42.53;21.13;;;;;;;5.68;76.20;101384.53;4949665;28;106676;-66
2021/11/15 16:40:40;;;;;;;40.40;19.95;;;;;;;5.69;76.15;101390.66;4949099;28;107860;-66
2021/11/15 16:43:06;;;;;;;42.65;22.23;;;;;;;5.68;76.52;101389.81;4950112;28;106120;-67
2021/11/15 16:45:32;;;;;;;42.78;22.83;;;;;;;5.67;76.14;101393.44;4948958;28;106176;-66
2021/11/15 16:47:58;;;;;;;43.95;23.15;;;;;;;5.66;76.37;101390.88;4949213;28;106143;-66
2021/11/15 16:50:24;;;;;;;47.08;22.80;;;;;;;5.63;76.29;101386.66;4956848;28;106523;-67
2021/11/15 16:52:51;;;;;;;43.72;23.48;;;;;;;5.64;76.45;101400.72;4969376;28;106101;-66
2021/11/15 16:55:22;;;;;;;46.75;22.67;;;;;;;5.64;76.46;101387.50;4969165;28;106187;-65
2021/11/15 16:57:55;;;;;;;43.25;23.40;;;;;;;5.61;76.53;101390.38;4968322;28;106529;-67
2021/11/15 17:00:27;;;;;;;51.08;26.33;;;;;;;5.61;76.58;101385.91;4954877;28;106836;-65
2021/11/15 17:02:53;;;;;;;45.95;24.58;;;;;;;5.62;76.59;101390.25;4953344;28;106173;-67
2021/11/15 17:05:19;;;;;;;41.42;22.80;;;;;;;5.62;76.74;101390.25;4951104;28;106347;-67
2021/11/15 17:07:48;;;;;;;45.00;24.85;;;;;;;5.60;76.43;101386.88;4950425;28;106183;-67
2021/11/15 17:10:17;;;;;;;48.53;23.60;;;;;;;5.58;76.70;101389.63;4950552;28;106011;-67
2021/11/15 17:12:43;;;;;;;45.30;24.00;;;;;;;5.58;76.76;101400.19;4951176;28;106087;-67
2021/11/15 17:15:10;;;;;;;43.08;24.10;;;;;;;5.58;76.63;101394.91;4951123;28;106280;-67
2021/11/15 17:17:36;;;;;;;42.20;22.50;;;;;;;5.58;76.78;101399.34;4950687;28;106030;-66
2021/11/15 17:20:04;;;;;;;50.05;26.13;;;;;;;5.60;77.02;101392.16;4961570;28;106436;-66
2021/11/15 17:22:31;;;;;;;45.80;24.10;;;;;;;5.60;77.18;101392.16;4969285;28;106169;-66
2021/11/15 17:24:57;;;;;;;50.75;24.42;;;;;;;5.61;76.83;101393.84;4968519;28;107096;-67
2021/11/15 17:27:23;;;;;;;51.42;26.83;;;;;;;5.62;76.98;101392.03;4968111;28;106597;-66
2021/11/15 17:29:48;;;;;;;49.08;23.83;;;;;;;5.62;76.89;101395.53;4967479;28;106494;-65
2021/11/15 17:32:13;;;;;;;49.55;25.77;;;;;;;5.62;77.21;101392.03;4968567;28;106113;-67
2021/11/15 17:34:39;;;;;;;56.05;24.63;;;;;;;5.63;77.00;101396.38;4968307;28;106068;-66
2021/11/15 17:37:04;;;;;;;57.72;24.55;;;;;;;5.62;77.13;101390.25;4967900;28;106040;-66
2021/11/15 17:39:30;;;;;;;51.08;25.17;;;;;;;5.62;77.35;101389.41;4965390;28;106112;-68
2021/11/15 17:41:55;;;;;;;50.47;24.90;;;;;;;5.59;77.31;101380.75;4950937;28;106440;-65
2021/11/15 17:44:21;;;;;;;51.75;27.02;;;;;;;5.61;77.23;101382.44;4963152;28;106263;-66
2021/11/15 17:47:00;;;;;;;53.20;27.25;;;;;;;5.61;77.23;101383.28;4968925;28;107271;-65
2021/11/15 17:49:26;;;;;;;51.28;24.00;;;;;;;5.60;77.03;101376.28;4968956;28;106014;-67
2021/11/15 17:52:41;;;;;;;49.97;25.65;;;;;;;5.60;77.27;101381.56;4969958;28;105958;-67
2021/11/15 17:57:18;;;;;;;50.97;26.38;;;;;;;5.62;76.97;101382.31;4966504;28;105903;-67
2021/11/15 17:59:44;;;;;;;52.92;26.55;;;;;;;5.61;77.46;101383.28;4969121;28;106137;-66
2021/11/15 18:02:10;;;;;;;58.97;29.10;;;;;;;5.60;77.19;101376.28;4969126;28;106152;-65
2021/11/15 18:04:35;;;;;;;56.65;26.90;;;;;;;5.59;77.50;101383.38;4969510;28;106111;-64
2021/11/15 18:07:00;;;;;;;54.80;27.33;;;;;;;5.58;77.27;101389.63;4971701;28;105998;-68
2021/11/15 18:09:31;;;;;;;50.38;26.67;;;;;;;5.57;77.50;101387.09;4980519;28;105927;-66
2021/11/15 18:11:57;;;;;;;54.25;28.17;;;;;;;5.57;77.61;101381.81;4979658;28;105962;-65
2021/11/15 18:14:25;;;;;;;52.15;25.60;;;;;;;5.58;77.51;101381.69;4975049;28;106124;-65
2021/11/15 18:16:51;;;;;;;54.28;27.15;;;;;;;5.58;77.57;101379.03;4985241;28;106128;-65
2021/11/15 18:19:22;;;;;;;60.38;26.88;;;;;;;5.62;77.55;101384.09;4974041;28;106640;-65
2021/11/15 18:21:49;;;;;;;53.40;27.80;;;;;;;5.62;77.62;101376.19;4979555;28;105998;-65
2021/11/15 18:24:16;;;;;;;56.30;28.38;;;;;;;5.62;77.75;101369.13;4961467;28;105829;-67
2021/11/15 18:26:44;;;;;;;54.50;26.27;;;;;;;5.63;77.26;101370.81;4960982;28;106067;-67
2021/11/15 18:29:10;;;;;;;54.15;28.00;;;;;;;5.62;77.71;101377.03;4970527;28;106708;-67
2021/11/15 18:31:36;;;;;;;55.75;30.00;;;;;;;5.63;77.70;101368.16;4980967;28;105982;-68
2021/11/15 18:34:02;;;;;;;54.95;29.17;;;;;;;5.64;77.83;101363.72;4970300;28;106211;-69
2021/11/15 18:36:27;;;;;;;62.90;29.35;;;;;;;5.65;77.43;101371.53;4973695;28;106215;-67
2021/11/15 18:38:55;;;;;;;59.35;30.02;;;;;;;5.65;77.57;101379.47;4983141;28;106039;-67
2021/11/15 18:41:23;;;;;;;57.58;29.95;;;;;;;5.65;77.63;101374.16;4967214;28;106041;-67
2021/11/15 18:43:51;;;;;;;65.15;30.33;;;;;;;5.66;77.75;101373.22;4960711;28;106257;-68
2021/11/15 18:46:17;;;;;;;64.07;30.80;;;;;;;5.65;77.83;101368.88;4977712;28;105969;-67
2021/11/15 18:48:44;;;;;;;59.78;29.95;;;;;;;5.66;78.17;101373.22;4984236;28;105962;-67
2021/11/15 18:51:12;;;;;;;61.33;31.00;;;;;;;5.66;77.68;101375.88;4975837;28;105930;-66
2021/11/15 18:53:37;;;;;;;71.70;32.03;;;;;;;5.66;77.83;101369.72;4976870;28;105938;-66
2021/11/15 18:56:04;;;;;;;69.70;32.08;;;;;;;5.66;77.77;101378.50;4967401;28;106547;-71
2021/11/15 18:58:30;;;;;;;67.00;32.53;;;;;;;5.67;77.86;101379.34;4968202;28;105996;-66
2021/11/15 19:00:56;;;;;;;66.57;33.60;;;;;;;5.66;77.75;101375.88;4969370;28;105948;-65
2021/11/15 19:03:22;;;;;;;67.80;32.55;;;;;;;5.67;78.03;101376.69;4968564;28;106111;-65
2021/11/15 19:05:52;;;;;;;67.05;32.95;;;;;;;5.68;77.79;101367.81;4968081;28;106112;-65
2021/11/15 19:08:23;;;;;;;61.97;31.30;;;;;;;5.67;77.74;101367.00;4967617;28;107010;-65
2021/11/15 19:13:30;;;;;;;;;;;;;;;5.62;77.95;101361.19;4951163;28;105843;-64
2021/11/15 19:16:00;;;;;;;61.30;29.67;;;;;;;5.61;77.81;101364.78;4948492;28;106044;-64
2021/11/15 19:18:25;;;;;;;60.58;30.00;;;;;;;5.59;77.91;101366.66;4958538;28;105847;-64
2021/11/15 19:20:53;;;;;;;65.15;32.38;;;;;;;5.58;77.88;101365.00;4968718;28;105846;-64
2021/11/15 19:23:21;;;;;;;58.03;30.98;;;;;;;5.57;77.89;101360.66;4967961;28;106222;-66
2021/11/15 19:25:48;;;;;;;67.82;30.35;;;;;;;5.58;78.04;101368.47;4967600;28;105888;-61
2021/11/15 19:28:14;;;;;;;59.58;30.80;;;;;;;5.59;77.82;101367.53;4967803;28;106606;-64
2021/11/15 19:30:44;;;;;;;68.03;30.85;;;;;;;5.57;78.04;101372.06;4963174;28;105922;-66
2021/11/15 19:33:10;;;;;;;57.53;28.73;;;;;;;5.59;77.84;101369.31;4948443;28;106292;-64
2021/11/15 19:35:36;;;;;;;62.58;30.65;;;;;;;5.59;78.08;101375.47;4948446;28;106356;-65
2021/11/15 19:38:04;;;;;;;67.65;31.08;;;;;;;5.57;78.12;101373.88;4948524;28;105991;-64
2021/11/15 19:40:29;;;;;;;65.00;30.35;;;;;;;5.53;77.93;101375.88;4956469;28;106101;-67
2021/11/15 19:42:55;;;;;;;63.47;29.67;;;;;;;5.50;78.19;101373.47;4958984;28;106027;-65
2021/11/15 19:45:22;;;;;;;59.45;30.17;;;;;;;5.47;78.09;101381.59;4957099;28;105895;-68
2021/11/15 19:47:48;;;;;;;63.45;30.85;;;;;;;5.47;78.08;101370.16;4957485;28;106109;-65
2021/11/15 19:50:15;;;;;;;66.60;32.63;;;;;;;5.48;78.22;101371.88;4959266;28;106118;-67
